sensor_id;sensor_type;location;lat;lon;timestamp;P1;durP1;ratioP1;P2;durP2;ratioP2
11943;SDS011;6031;50.220;10.122;2022-11-15T00:00:26;14.60;;;11.30;;
11943;SDS011;6031;50.220;10.122;2022-11-15T00:02:52;17.97;;;13.03;;
11943;SDS011;6031;50.220;10.122;2022-11-15T00:05:18;19.17;;;12.67;;
11943;SDS011;6031;50.220;10.122;2022-11-15T00:07:43;17.80;;;12.80;;
11943;SDS011;6031;50.220;10.122;2022-11-15T00:10:09;16.67;;;10.37;;
11943;SDS011;6031;50.220;10.122;2022-11-15T00:12:34;13.13;;;10.23;;
11943;SDS011;6031;50.220;10.122;2022-11-15T00:15:00;16.73;;;13.03;;
11943;SDS011;6031;50.220;10.122;2022-11-15T00:17:26;15.87;;;12.97;;
11943;SDS011;6031;50.220;10.122;2022-11-15T00:19:51;15.87;;;11.80;;
11943;SDS011;6031;50.220;10.122;2022-11-15T00:22:17;16.73;;;12.27;;
11943;SDS011;6031;50.220;10.122;2022-11-15T00:24:42;20.20;;;13.27;;
11943;SDS011;6031;50.220;10.122;2022-11-15T00:27:08;18.40;;;12.60;;
11943;SDS011;6031;50.220;10.122;2022-11-15T00:29:33;21.47;;;14.40;;
11943;SDS011;6031;50.220;10.122;2022-11-15T00:31:59;18.53;;;13.30;;
11943;SDS011;6031;50.220;10.122;2022-11-15T00:34:24;13.23;;;7.47;;
11943;SDS011;6031;50.220;10.122;2022-11-15T00:36:50;11.30;;;8.20;;
11943;SDS011;6031;50.220;10.122;2022-11-15T00:39:15;12.27;;;8.73;;
11943;SDS011;6031;50.220;10.122;2022-11-15T00:41:41;16.77;;;11.70;;
11943;SDS011;6031;50.220;10.122;2022-11-15T00:44:07;14.50;;;10.93;;
11943;SDS011;6031;50.220;10.122;2022-11-15T00:46:32;16.67;;;11.60;;
11943;SDS011;6031;50.220;10.122;2022-11-15T00:48:58;15.97;;;9.77;;
11943;SDS011;6031;50.220;10.122;2022-11-15T00:51:23;15.93;;;12.60;;
11943;SDS011;6031;50.220;10.122;2022-11-15T00:53:49;14.90;;;11.97;;
11943;SDS011;6031;50.220;10.122;2022-11-15T00:56:14;15.57;;;10.40;;
11943;SDS011;6031;50.220;10.122;2022-11-15T00:58:40;19.50;;;13.13;;
11943;SDS011;6031;50.220;10.122;2022-11-15T01:01:06;16.50;;;12.93;;
11943;SDS011;6031;50.220;10.122;2022-11-15T01:03:33;19.77;;;14.33;;
11943;SDS011;6031;50.220;10.122;2022-11-15T01:05:59;14.07;;;10.10;;
11943;SDS011;6031;50.220;10.122;2022-11-15T01:08:25;15.53;;;12.27;;
11943;SDS011;6031;50.220;10.122;2022-11-15T01:10:51;18.80;;;12.37;;
11943;SDS011;6031;50.220;10.122;2022-11-15T01:13:16;14.60;;;11.87;;
11943;SDS011;6031;50.220;10.122;2022-11-15T01:15:42;12.40;;;9.83;;
11943;SDS011;6031;50.220;10.122;2022-11-15T01:18:08;18.33;;;14.07;;
11943;SDS011;6031;50.220;10.122;2022-11-15T01:20:34;15.80;;;11.40;;
11943;SDS011;6031;50.220;10.122;2022-11-15T01:22:59;13.53;;;11.43;;
11943;SDS011;6031;50.220;10.122;2022-11-15T01:25:25;12.23;;;9.87;;
11943;SDS011;6031;50.220;10.122;2022-11-15T01:27:50;14.00;;;9.40;;
11943;SDS011;6031;50.220;10.122;2022-11-15T01:30:16;6.90;;;6.13;;
11943;SDS011;6031;50.220;10.122;2022-11-15T01:32:41;21.67;;;11.87;;
11943;SDS011;6031;50.220;10.122;2022-11-15T01:35:07;20.20;;;13.80;;
11943;SDS011;6031;50.220;10.122;2022-11-15T01:37:33;18.03;;;12.50;;
11943;SDS011;6031;50.220;10.122;2022-11-15T01:39:58;12.80;;;8.17;;
11943;SDS011;6031;50.220;10.122;2022-11-15T01:42:24;12.93;;;10.53;;
11943;SDS011;6031;50.220;10.122;2022-11-15T01:44:50;11.70;;;9.80;;
11943;SDS011;6031;50.220;10.122;2022-11-15T01:49:57;10.90;;;9.13;;
11943;SDS011;6031;50.220;10.122;2022-11-15T01:52:33;11.60;;;9.23;;
11943;SDS011;6031;50.220;10.122;2022-11-15T01:57:28;13.07;;;9.60;;
11943;SDS011;6031;50.220;10.122;2022-11-15T01:59:54;12.83;;;9.40;;
11943;SDS011;6031;50.220;10.122;2022-11-15T02:02:20;9.40;;;8.13;;
11943;SDS011;6031;50.220;10.122;2022-11-15T02:04:46;10.87;;;9.07;;
11943;SDS011;6031;50.220;10.122;2022-11-15T02:07:13;7.80;;;6.97;;
11943;SDS011;6031;50.220;10.122;2022-11-15T02:09:42;9.47;;;7.80;;
11943;SDS011;6031;50.220;10.122;2022-11-15T02:12:09;11.67;;;8.67;;
11943;SDS011;6031;50.220;10.122;2022-11-15T02:14:36;9.47;;;8.47;;
11943;SDS011;6031;50.220;10.122;2022-11-15T02:20:08;12.10;;;9.00;;
11943;SDS011;6031;50.220;10.122;2022-11-15T02:23:13;14.23;;;10.60;;
11943;SDS011;6031;50.220;10.122;2022-11-15T02:26:19;13.83;;;9.30;;
11943;SDS011;6031;50.220;10.122;2022-11-15T02:29:04;17.37;;;11.57;;
11943;SDS011;6031;50.220;10.122;2022-11-15T02:31:48;18.67;;;14.17;;
11943;SDS011;6031;50.220;10.122;2022-11-15T02:34:27;16.83;;;11.60;;
11943;SDS011;6031;50.220;10.122;2022-11-15T02:39:51;16.03;;;11.93;;
11943;SDS011;6031;50.220;10.122;2022-11-15T02:42:36;17.30;;;11.83;;
11943;SDS011;6031;50.220;10.122;2022-11-15T02:45:29;22.87;;;20.97;;
11943;SDS011;6031;50.220;10.122;2022-11-15T02:47:58;13.37;;;10.70;;
11943;SDS011;6031;50.220;10.122;2022-11-15T02:50:27;15.90;;;12.17;;
11943;SDS011;6031;50.220;10.122;2022-11-15T02:52:55;13.63;;;10.20;;
11943;SDS011;6031;50.220;10.122;2022-11-15T02:55:31;11.83;;;9.00;;
11943;SDS011;6031;50.220;10.122;2022-11-15T03:06:29;11.37;;;8.33;;
11943;SDS011;6031;50.220;10.122;2022-11-15T03:11:59;13.63;;;10.40;;
11943;SDS011;6031;50.220;10.122;2022-11-15T03:14:47;11.83;;;9.17;;
11943;SDS011;6031;50.220;10.122;2022-11-15T03:19:53;13.13;;;8.37;;
11943;SDS011;6031;50.220;10.122;2022-11-15T03:22:22;9.47;;;7.43;;
11943;SDS011;6031;50.220;10.122;2022-11-15T03:24:53;11.77;;;8.17;;
11943;SDS011;6031;50.220;10.122;2022-11-15T03:27:23;11.40;;;8.20;;
11943;SDS011;6031;50.220;10.122;2022-11-15T03:29:59;10.67;;;7.40;;
11943;SDS011;6031;50.220;10.122;2022-11-15T03:32:29;10.03;;;6.77;;
11943;SDS011;6031;50.220;10.122;2022-11-15T03:40:32;8.33;;;6.53;;
11943;SDS011;6031;50.220;10.122;2022-11-15T03:45:43;6.57;;;5.63;;
11943;SDS011;6031;50.220;10.122;2022-11-15T03:48:21;5.53;;;5.03;;
11943;SDS011;6031;50.220;10.122;2022-11-15T03:50:50;9.20;;;5.83;;
11943;SDS011;6031;50.220;10.122;2022-11-15T03:53:17;6.90;;;6.20;;
11943;SDS011;6031;50.220;10.122;2022-11-15T03:55:42;6.10;;;5.43;;
11943;SDS011;6031;50.220;10.122;2022-11-15T03:58:08;9.80;;;6.17;;
11943;SDS011;6031;50.220;10.122;2022-11-15T04:00:34;6.83;;;5.70;;
11943;SDS011;6031;50.220;10.122;2022-11-15T04:02:59;9.33;;;6.50;;
11943;SDS011;6031;50.220;10.122;2022-11-15T04:05:25;12.90;;;7.37;;
11943;SDS011;6031;50.220;10.122;2022-11-15T04:07:50;12.60;;;8.07;;
11943;SDS011;6031;50.220;10.122;2022-11-15T04:10:16;13.87;;;9.03;;
11943;SDS011;6031;50.220;10.122;2022-11-15T04:12:42;12.10;;;7.83;;
11943;SDS011;6031;50.220;10.122;2022-11-15T04:15:29;7.97;;;5.90;;
11943;SDS011;6031;50.220;10.122;2022-11-15T04:17:55;6.03;;;4.77;;
11943;SDS011;6031;50.220;10.122;2022-11-15T04:20:23;6.10;;;5.50;;
11943;SDS011;6031;50.220;10.122;2022-11-15T04:26:06;5.70;;;5.10;;
11943;SDS011;6031;50.220;10.122;2022-11-15T04:28:37;6.63;;;5.20;;
11943;SDS011;6031;50.220;10.122;2022-11-15T04:31:22;7.40;;;6.10;;
11943;SDS011;6031;50.220;10.122;2022-11-15T04:33:47;6.37;;;5.77;;
11943;SDS011;6031;50.220;10.122;2022-11-15T04:36:13;6.53;;;4.90;;
11943;SDS011;6031;50.220;10.122;2022-11-15T04:38:57;6.93;;;5.13;;
11943;SDS011;6031;50.220;10.122;2022-11-15T04:41:23;9.33;;;6.53;;
11943;SDS011;6031;50.220;10.122;2022-11-15T04:43:48;8.30;;;6.33;;
11943;SDS011;6031;50.220;10.122;2022-11-15T04:46:14;5.53;;;4.43;;
11943;SDS011;6031;50.220;10.122;2022-11-15T04:48:39;6.80;;;5.47;;
11943;SDS011;6031;50.220;10.122;2022-11-15T04:51:05;6.80;;;5.97;;
11943;SDS011;6031;50.220;10.122;2022-11-15T04:53:30;7.80;;;5.23;;
11943;SDS011;6031;50.220;10.122;2022-11-15T04:55:56;9.63;;;6.97;;
11943;SDS011;6031;50.220;10.122;2022-11-15T04:58:21;9.77;;;7.03;;
11943;SDS011;6031;50.220;10.122;2022-11-15T05:00:47;6.90;;;5.63;;
11943;SDS011;6031;50.220;10.122;2022-11-15T05:03:12;9.23;;;6.13;;
11943;SDS011;6031;50.220;10.122;2022-11-15T05:05:57;8.47;;;7.03;;
11943;SDS011;6031;50.220;10.122;2022-11-15T05:08:23;8.57;;;6.17;;
11943;SDS011;6031;50.220;10.122;2022-11-15T05:10:49;12.07;;;8.17;;
11943;SDS011;6031;50.220;10.122;2022-11-15T05:13:14;10.83;;;8.03;;
11943;SDS011;6031;50.220;10.122;2022-11-15T05:15:40;14.57;;;9.23;;
11943;SDS011;6031;50.220;10.122;2022-11-15T05:18:05;9.07;;;6.83;;
11943;SDS011;6031;50.220;10.122;2022-11-15T05:20:31;11.37;;;6.93;;
11943;SDS011;6031;50.220;10.122;2022-11-15T05:22:57;12.77;;;9.40;;
11943;SDS011;6031;50.220;10.122;2022-11-15T05:25:22;9.60;;;7.73;;
11943;SDS011;6031;50.220;10.122;2022-11-15T05:27:48;9.87;;;7.10;;
11943;SDS011;6031;50.220;10.122;2022-11-15T05:30:14;10.43;;;8.53;;
11943;SDS011;6031;50.220;10.122;2022-11-15T05:32:40;13.20;;;9.60;;
11943;SDS011;6031;50.220;10.122;2022-11-15T05:35:06;11.43;;;9.20;;
11943;SDS011;6031;50.220;10.122;2022-11-15T05:37:36;12.47;;;9.27;;
11943;SDS011;6031;50.220;10.122;2022-11-15T05:40:02;14.33;;;9.17;;
11943;SDS011;6031;50.220;10.122;2022-11-15T05:42:28;10.13;;;8.30;;
11943;SDS011;6031;50.220;10.122;2022-11-15T05:44:55;13.07;;;8.33;;
11943;SDS011;6031;50.220;10.122;2022-11-15T05:47:24;11.83;;;8.43;;
11943;SDS011;6031;50.220;10.122;2022-11-15T05:49:52;13.03;;;8.97;;
11943;SDS011;6031;50.220;10.122;2022-11-15T05:52:20;9.03;;;6.10;;
11943;SDS011;6031;50.220;10.122;2022-11-15T05:54:50;7.17;;;5.77;;
11943;SDS011;6031;50.220;10.122;2022-11-15T05:57:16;8.23;;;6.60;;
11943;SDS011;6031;50.220;10.122;2022-11-15T05:59:42;7.63;;;6.93;;
11943;SDS011;6031;50.220;10.122;2022-11-15T06:02:08;9.63;;;7.57;;
11943;SDS011;6031;50.220;10.122;2022-11-15T06:04:34;9.57;;;6.83;;
11943;SDS011;6031;50.220;10.122;2022-11-15T06:07:00;11.53;;;7.77;;
11943;SDS011;6031;50.220;10.122;2022-11-15T06:09:25;20.67;;;12.50;;
11943;SDS011;6031;50.220;10.122;2022-11-15T06:11:51;11.93;;;9.30;;
11943;SDS011;6031;50.220;10.122;2022-11-15T06:14:16;10.53;;;9.30;;
11943;SDS011;6031;50.220;10.122;2022-11-15T06:16:43;22.40;;;11.30;;
11943;SDS011;6031;50.220;10.122;2022-11-15T06:19:08;14.17;;;9.90;;
11943;SDS011;6031;50.220;10.122;2022-11-15T06:21:34;13.47;;;10.80;;
11943;SDS011;6031;50.220;10.122;2022-11-15T06:23:59;13.07;;;10.10;;
11943;SDS011;6031;50.220;10.122;2022-11-15T06:26:25;19.07;;;10.97;;
11943;SDS011;6031;50.220;10.122;2022-11-15T06:28:50;10.87;;;8.57;;
11943;SDS011;6031;50.220;10.122;2022-11-15T06:31:16;10.60;;;8.77;;
11943;SDS011;6031;50.220;10.122;2022-11-15T06:33:41;12.80;;;10.03;;
11943;SDS011;6031;50.220;10.122;2022-11-15T06:36:08;18.80;;;9.20;;
11943;SDS011;6031;50.220;10.122;2022-11-15T06:38:35;12.47;;;8.00;;
11943;SDS011;6031;50.220;10.122;2022-11-15T06:41:02;8.10;;;7.20;;
11943;SDS011;6031;50.220;10.122;2022-11-15T06:43:29;10.97;;;8.37;;
11943;SDS011;6031;50.220;10.122;2022-11-15T06:45:54;9.27;;;7.80;;
11943;SDS011;6031;50.220;10.122;2022-11-15T06:48:20;11.50;;;6.57;;
11943;SDS011;6031;50.220;10.122;2022-11-15T06:50:55;10.00;;;6.97;;
11943;SDS011;6031;50.220;10.122;2022-11-15T06:53:23;13.23;;;9.33;;
11943;SDS011;6031;50.220;10.122;2022-11-15T06:55:49;10.10;;;8.53;;
11943;SDS011;6031;50.220;10.122;2022-11-15T06:58:15;12.27;;;8.80;;
11943;SDS011;6031;50.220;10.122;2022-11-15T07:00:40;14.70;;;10.00;;
11943;SDS011;6031;50.220;10.122;2022-11-15T07:03:06;12.43;;;8.60;;
11943;SDS011;6031;50.220;10.122;2022-11-15T07:05:32;14.37;;;10.73;;
11943;SDS011;6031;50.220;10.122;2022-11-15T07:07:58;15.67;;;11.23;;
11943;SDS011;6031;50.220;10.122;2022-11-15T07:10:24;11.23;;;8.53;;
11943;SDS011;6031;50.220;10.122;2022-11-15T07:12:51;19.17;;;11.17;;
11943;SDS011;6031;50.220;10.122;2022-11-15T07:15:18;15.40;;;8.87;;
11943;SDS011;6031;50.220;10.122;2022-11-15T07:17:44;16.13;;;10.97;;
11943;SDS011;6031;50.220;10.122;2022-11-15T07:20:10;12.70;;;8.67;;
11943;SDS011;6031;50.220;10.122;2022-11-15T07:22:38;16.80;;;10.43;;
11943;SDS011;6031;50.220;10.122;2022-11-15T07:25:04;18.27;;;10.90;;
11943;SDS011;6031;50.220;10.122;2022-11-15T07:27:30;12.17;;;9.27;;
11943;SDS011;6031;50.220;10.122;2022-11-15T07:29:55;13.37;;;10.00;;
11943;SDS011;6031;50.220;10.122;2022-11-15T07:32:21;14.27;;;11.00;;
11943;SDS011;6031;50.220;10.122;2022-11-15T07:34:46;18.93;;;11.37;;
11943;SDS011;6031;50.220;10.122;2022-11-15T07:37:12;21.00;;;12.87;;
11943;SDS011;6031;50.220;10.122;2022-11-15T07:39:37;24.20;;;16.27;;
11943;SDS011;6031;50.220;10.122;2022-11-15T07:42:03;12.97;;;10.27;;
11943;SDS011;6031;50.220;10.122;2022-11-15T07:44:47;17.00;;;11.30;;
11943;SDS011;6031;50.220;10.122;2022-11-15T07:47:13;8.53;;;7.20;;
11943;SDS011;6031;50.220;10.122;2022-11-15T07:49:38;14.07;;;9.57;;
11943;SDS011;6031;50.220;10.122;2022-11-15T07:52:04;10.63;;;6.67;;
11943;SDS011;6031;50.220;10.122;2022-11-15T07:54:29;9.80;;;7.27;;
11943;SDS011;6031;50.220;10.122;2022-11-15T07:56:55;10.63;;;8.53;;
11943;SDS011;6031;50.220;10.122;2022-11-15T07:59:20;12.17;;;10.90;;
11943;SDS011;6031;50.220;10.122;2022-11-15T08:01:46;17.43;;;12.20;;
11943;SDS011;6031;50.220;10.122;2022-11-15T08:04:12;21.57;;;15.03;;
11943;SDS011;6031;50.220;10.122;2022-11-15T08:06:37;16.60;;;12.57;;
11943;SDS011;6031;50.220;10.122;2022-11-15T08:09:03;15.87;;;12.13;;
11943;SDS011;6031;50.220;10.122;2022-11-15T08:11:29;16.53;;;11.83;;
11943;SDS011;6031;50.220;10.122;2022-11-15T08:13:55;17.03;;;10.07;;
11943;SDS011;6031;50.220;10.122;2022-11-15T08:16:20;13.00;;;9.57;;
11943;SDS011;6031;50.220;10.122;2022-11-15T08:18:46;10.63;;;9.53;;
11943;SDS011;6031;50.220;10.122;2022-11-15T08:21:12;13.47;;;9.93;;
11943;SDS011;6031;50.220;10.122;2022-11-15T08:23:42;12.40;;;9.47;;
11943;SDS011;6031;50.220;10.122;2022-11-15T08:26:08;14.73;;;10.83;;
11943;SDS011;6031;50.220;10.122;2022-11-15T08:28:34;13.97;;;10.60;;
11943;SDS011;6031;50.220;10.122;2022-11-15T08:30:59;13.83;;;9.70;;
11943;SDS011;6031;50.220;10.122;2022-11-15T08:33:25;15.30;;;9.77;;
11943;SDS011;6031;50.220;10.122;2022-11-15T08:35:51;13.60;;;9.80;;
11943;SDS011;6031;50.220;10.122;2022-11-15T08:38:17;17.50;;;11.77;;
11943;SDS011;6031;50.220;10.122;2022-11-15T08:40:42;8.37;;;6.57;;
11943;SDS011;6031;50.220;10.122;2022-11-15T08:43:08;10.03;;;6.90;;
11943;SDS011;6031;50.220;10.122;2022-11-15T08:45:34;12.30;;;10.07;;
11943;SDS011;6031;50.220;10.122;2022-11-15T08:48:00;13.47;;;10.73;;
11943;SDS011;6031;50.220;10.122;2022-11-15T08:50:27;12.80;;;9.63;;
11943;SDS011;6031;50.220;10.122;2022-11-15T08:52:53;10.53;;;7.70;;
11943;SDS011;6031;50.220;10.122;2022-11-15T08:55:18;15.03;;;9.67;;
11943;SDS011;6031;50.220;10.122;2022-11-15T08:57:44;9.33;;;7.27;;
11943;SDS011;6031;50.220;10.122;2022-11-15T09:00:10;12.47;;;9.33;;
11943;SDS011;6031;50.220;10.122;2022-11-15T09:02:37;10.63;;;9.30;;
11943;SDS011;6031;50.220;10.122;2022-11-15T09:05:03;12.83;;;10.27;;
11943;SDS011;6031;50.220;10.122;2022-11-15T09:07:29;12.80;;;8.13;;
11943;SDS011;6031;50.220;10.122;2022-11-15T09:09:56;10.23;;;8.10;;
11943;SDS011;6031;50.220;10.122;2022-11-15T09:12:22;14.97;;;10.13;;
11943;SDS011;6031;50.220;10.122;2022-11-15T09:14:48;15.17;;;9.50;;
11943;SDS011;6031;50.220;10.122;2022-11-15T09:17:13;14.13;;;8.43;;
11943;SDS011;6031;50.220;10.122;2022-11-15T09:19:39;13.90;;;9.53;;
11943;SDS011;6031;50.220;10.122;2022-11-15T09:22:07;11.23;;;9.13;;
11943;SDS011;6031;50.220;10.122;2022-11-15T09:24:33;8.43;;;6.43;;
11943;SDS011;6031;50.220;10.122;2022-11-15T09:26:59;10.90;;;8.43;;
11943;SDS011;6031;50.220;10.122;2022-11-15T09:29:25;10.63;;;7.70;;
11943;SDS011;6031;50.220;10.122;2022-11-15T09:31:52;8.80;;;6.37;;
11943;SDS011;6031;50.220;10.122;2022-11-15T09:34:17;12.00;;;8.20;;
11943;SDS011;6031;50.220;10.122;2022-11-15T09:36:43;7.67;;;6.17;;
11943;SDS011;6031;50.220;10.122;2022-11-15T09:39:08;7.87;;;5.93;;
11943;SDS011;6031;50.220;10.122;2022-11-15T09:44:35;6.00;;;4.80;;
11943;SDS011;6031;50.220;10.122;2022-11-15T09:47:28;5.77;;;5.17;;
11943;SDS011;6031;50.220;10.122;2022-11-15T09:50:11;8.13;;;5.40;;
11943;SDS011;6031;50.220;10.122;2022-11-15T09:52:42;6.00;;;5.13;;
11943;SDS011;6031;50.220;10.122;2022-11-15T09:55:10;5.20;;;4.70;;
11943;SDS011;6031;50.220;10.122;2022-11-15T09:57:57;7.67;;;4.70;;
11943;SDS011;6031;50.220;10.122;2022-11-15T10:03:11;4.80;;;4.23;;
11943;SDS011;6031;50.220;10.122;2022-11-15T10:05:49;4.80;;;4.40;;
11943;SDS011;6031;50.220;10.122;2022-11-15T10:08:25;7.17;;;5.40;;
11943;SDS011;6031;50.220;10.122;2022-11-15T10:11:06;6.80;;;4.30;;
11943;SDS011;6031;50.220;10.122;2022-11-15T10:13:35;4.73;;;4.33;;
11943;SDS011;6031;50.220;10.122;2022-11-15T10:16:12;4.50;;;4.10;;
11943;SDS011;6031;50.220;10.122;2022-11-15T10:24:41;4.27;;;3.90;;
11943;SDS011;6031;50.220;10.122;2022-11-15T10:27:13;5.83;;;4.77;;
11943;SDS011;6031;50.220;10.122;2022-11-15T10:29:44;4.60;;;4.20;;
11943;SDS011;6031;50.220;10.122;2022-11-15T10:32:15;5.77;;;4.63;;
11943;SDS011;6031;50.220;10.122;2022-11-15T10:34:43;4.33;;;3.93;;
11943;SDS011;6031;50.220;10.122;2022-11-15T10:37:10;7.47;;;4.00;;
11943;SDS011;6031;50.220;10.122;2022-11-15T10:39:35;4.93;;;3.70;;
11943;SDS011;6031;50.220;10.122;2022-11-15T10:44:52;5.23;;;4.10;;
11943;SDS011;6031;50.220;10.122;2022-11-15T10:47:22;5.03;;;4.00;;
11943;SDS011;6031;50.220;10.122;2022-11-15T10:49:56;3.30;;;3.07;;
11943;SDS011;6031;50.220;10.122;2022-11-15T10:52:22;4.57;;;4.17;;
11943;SDS011;6031;50.220;10.122;2022-11-15T10:54:54;4.77;;;4.17;;
11943;SDS011;6031;50.220;10.122;2022-11-15T10:57:49;3.70;;;3.40;;
11943;SDS011;6031;50.220;10.122;2022-11-15T11:02:55;7.20;;;3.10;;
11943;SDS011;6031;50.220;10.122;2022-11-15T11:05:31;3.33;;;2.93;;
11943;SDS011;6031;50.220;10.122;2022-11-15T11:08:00;5.63;;;3.97;;
11943;SDS011;6031;50.220;10.122;2022-11-15T11:10:27;5.30;;;4.80;;
11943;SDS011;6031;50.220;10.122;2022-11-15T11:12:53;8.73;;;4.87;;
11943;SDS011;6031;50.220;10.122;2022-11-15T11:15:19;5.33;;;4.27;;
11943;SDS011;6031;50.220;10.122;2022-11-15T11:18:28;5.97;;;5.00;;
11943;SDS011;6031;50.220;10.122;2022-11-15T11:20:49;6.00;;;4.63;;
11943;SDS011;6031;50.220;10.122;2022-11-15T11:23:31;6.50;;;5.07;;
11943;SDS011;6031;50.220;10.122;2022-11-15T11:26:31;6.20;;;4.73;;
11943;SDS011;6031;50.220;10.122;2022-11-15T11:31:51;4.57;;;3.90;;
11943;SDS011;6031;50.220;10.122;2022-11-15T11:40:57;6.83;;;4.13;;
11943;SDS011;6031;50.220;10.122;2022-11-15T11:48:42;3.57;;;3.13;;
11943;SDS011;6031;50.220;10.122;2022-11-15T11:53:55;4.10;;;3.73;;
11943;SDS011;6031;50.220;10.122;2022-11-15T11:56:28;5.07;;;4.50;;
11943;SDS011;6031;50.220;10.122;2022-11-15T11:59:02;4.17;;;3.33;;
11943;SDS011;6031;50.220;10.122;2022-11-15T12:01:49;5.90;;;4.70;;
11943;SDS011;6031;50.220;10.122;2022-11-15T12:07:01;4.00;;;3.70;;
11943;SDS011;6031;50.220;10.122;2022-11-15T12:09:34;4.93;;;4.37;;
11943;SDS011;6031;50.220;10.122;2022-11-15T12:14:50;5.33;;;4.80;;
11943;SDS011;6031;50.220;10.122;2022-11-15T12:17:21;6.10;;;4.90;;
11943;SDS011;6031;50.220;10.122;2022-11-15T12:19:51;6.23;;;5.23;;
11943;SDS011;6031;50.220;10.122;2022-11-15T12:25:03;5.73;;;5.10;;
11943;SDS011;6031;50.220;10.122;2022-11-15T12:30:08;3.77;;;3.37;;
11943;SDS011;6031;50.220;10.122;2022-11-15T12:32:39;6.17;;;4.63;;
11943;SDS011;6031;50.220;10.122;2022-11-15T12:35:21;8.30;;;5.03;;
11943;SDS011;6031;50.220;10.122;2022-11-15T12:37:51;7.00;;;4.90;;
11943;SDS011;6031;50.220;10.122;2022-11-15T12:45:54;4.27;;;3.87;;
11943;SDS011;6031;50.220;10.122;2022-11-15T12:51:00;8.03;;;4.20;;
11943;SDS011;6031;50.220;10.122;2022-11-15T12:53:26;3.57;;;3.27;;
11943;SDS011;6031;50.220;10.122;2022-11-15T12:58:28;6.27;;;4.90;;
11943;SDS011;6031;50.220;10.122;2022-11-15T13:01:10;11.27;;;5.40;;
11943;SDS011;6031;50.220;10.122;2022-11-15T13:06:50;4.77;;;3.57;;
11943;SDS011;6031;50.220;10.122;2022-11-15T13:12:09;6.13;;;4.73;;
11943;SDS011;6031;50.220;10.122;2022-11-15T13:14:58;6.67;;;4.43;;
11943;SDS011;6031;50.220;10.122;2022-11-15T13:28:18;5.70;;;4.57;;
11943;SDS011;6031;50.220;10.122;2022-11-15T13:30:53;8.30;;;5.17;;
11943;SDS011;6031;50.220;10.122;2022-11-15T13:33:22;6.57;;;5.03;;
11943;SDS011;6031;50.220;10.122;2022-11-15T13:35:57;8.00;;;6.83;;
11943;SDS011;6031;50.220;10.122;2022-11-15T13:40:49;6.67;;;5.27;;
11943;SDS011;6031;50.220;10.122;2022-11-15T13:48:43;10.50;;;8.03;;
11943;SDS011;6031;50.220;10.122;2022-11-15T13:53:45;9.37;;;5.37;;
11943;SDS011;6031;50.220;10.122;2022-11-15T13:56:16;7.53;;;4.57;;
11943;SDS011;6031;50.220;10.122;2022-11-15T13:58:44;7.23;;;5.33;;
11943;SDS011;6031;50.220;10.122;2022-11-15T14:01:15;6.00;;;3.83;;
11943;SDS011;6031;50.220;10.122;2022-11-15T14:03:49;6.23;;;3.80;;
11943;SDS011;6031;50.220;10.122;2022-11-15T14:06:23;7.73;;;4.40;;
11943;SDS011;6031;50.220;10.122;2022-11-15T14:09:03;4.30;;;3.90;;
11943;SDS011;6031;50.220;10.122;2022-11-15T14:11:31;5.43;;;4.67;;
11943;SDS011;6031;50.220;10.122;2022-11-15T14:16:40;7.70;;;4.60;;
11943;SDS011;6031;50.220;10.122;2022-11-15T14:19:11;5.30;;;4.30;;
11943;SDS011;6031;50.220;10.122;2022-11-15T14:22:07;4.90;;;4.23;;
11943;SDS011;6031;50.220;10.122;2022-11-15T14:24:42;8.90;;;4.13;;
11943;SDS011;6031;50.220;10.122;2022-11-15T14:29:46;17.53;;;10.03;;
11943;SDS011;6031;50.220;10.122;2022-11-15T14:32:20;8.80;;;6.00;;
11943;SDS011;6031;50.220;10.122;2022-11-15T14:34:59;6.27;;;5.00;;
11943;SDS011;6031;50.220;10.122;2022-11-15T14:37:30;6.43;;;4.53;;
11943;SDS011;6031;50.220;10.122;2022-11-15T14:39:59;8.57;;;4.47;;
11943;SDS011;6031;50.220;10.122;2022-11-15T14:42:25;7.07;;;4.17;;
11943;SDS011;6031;50.220;10.122;2022-11-15T14:44:51;7.87;;;4.93;;
11943;SDS011;6031;50.220;10.122;2022-11-15T14:47:17;5.23;;;4.00;;
11943;SDS011;6031;50.220;10.122;2022-11-15T14:49:43;5.07;;;4.53;;
11943;SDS011;6031;50.220;10.122;2022-11-15T14:52:28;6.47;;;5.00;;
11943;SDS011;6031;50.220;10.122;2022-11-15T14:54:55;7.17;;;5.63;;
11943;SDS011;6031;50.220;10.122;2022-11-15T14:57:22;5.53;;;4.53;;
11943;SDS011;6031;50.220;10.122;2022-11-15T14:59:48;13.07;;;6.40;;
11943;SDS011;6031;50.220;10.122;2022-11-15T15:02:15;9.03;;;6.50;;
11943;SDS011;6031;50.220;10.122;2022-11-15T15:04:43;8.00;;;5.73;;
11943;SDS011;6031;50.220;10.122;2022-11-15T15:07:09;10.83;;;7.27;;
11943;SDS011;6031;50.220;10.122;2022-11-15T15:09:34;10.27;;;8.37;;
11943;SDS011;6031;50.220;10.122;2022-11-15T15:12:00;8.43;;;5.73;;
11943;SDS011;6031;50.220;10.122;2022-11-15T15:14:25;12.33;;;8.30;;
11943;SDS011;6031;50.220;10.122;2022-11-15T15:16:51;9.53;;;7.93;;
11943;SDS011;6031;50.220;10.122;2022-11-15T15:19:16;11.03;;;7.93;;
11943;SDS011;6031;50.220;10.122;2022-11-15T15:21:42;11.97;;;8.10;;
11943;SDS011;6031;50.220;10.122;2022-11-15T15:24:11;11.53;;;7.07;;
11943;SDS011;6031;50.220;10.122;2022-11-15T15:26:38;11.80;;;8.70;;
11943;SDS011;6031;50.220;10.122;2022-11-15T15:29:04;17.10;;;8.83;;
11943;SDS011;6031;50.220;10.122;2022-11-15T15:31:30;14.97;;;9.03;;
11943;SDS011;6031;50.220;10.122;2022-11-15T15:33:55;14.63;;;10.40;;
11943;SDS011;6031;50.220;10.122;2022-11-15T15:36:21;15.83;;;9.63;;
11943;SDS011;6031;50.220;10.122;2022-11-15T15:38:46;11.93;;;8.73;;
11943;SDS011;6031;50.220;10.122;2022-11-15T15:41:12;11.67;;;8.03;;
11943;SDS011;6031;50.220;10.122;2022-11-15T15:43:39;10.40;;;7.47;;
11943;SDS011;6031;50.220;10.122;2022-11-15T15:46:12;5.50;;;4.70;;
11943;SDS011;6031;50.220;10.122;2022-11-15T15:48:40;14.67;;;9.27;;
11943;SDS011;6031;50.220;10.122;2022-11-15T15:51:06;13.27;;;10.00;;
11943;SDS011;6031;50.220;10.122;2022-11-15T15:53:31;32.20;;;19.40;;
11943;SDS011;6031;50.220;10.122;2022-11-15T15:55:57;21.57;;;14.77;;
11943;SDS011;6031;50.220;10.122;2022-11-15T15:58:23;25.00;;;14.93;;
11943;SDS011;6031;50.220;10.122;2022-11-15T16:00:48;27.40;;;14.37;;
11943;SDS011;6031;50.220;10.122;2022-11-15T16:03:14;16.43;;;11.77;;
11943;SDS011;6031;50.220;10.122;2022-11-15T16:05:39;15.73;;;9.83;;
11943;SDS011;6031;50.220;10.122;2022-11-15T16:08:14;18.23;;;10.07;;
11943;SDS011;6031;50.220;10.122;2022-11-15T16:10:46;14.13;;;8.07;;
11943;SDS011;6031;50.220;10.122;2022-11-15T16:13:12;9.73;;;6.60;;
11943;SDS011;6031;50.220;10.122;2022-11-15T16:15:38;13.63;;;8.30;;
11943;SDS011;6031;50.220;10.122;2022-11-15T16:18:04;14.70;;;11.00;;
11943;SDS011;6031;50.220;10.122;2022-11-15T16:23:04;15.87;;;10.60;;
11943;SDS011;6031;50.220;10.122;2022-11-15T16:25:33;15.37;;;11.67;;
11943;SDS011;6031;50.220;10.122;2022-11-15T16:28:10;12.37;;;9.17;;
11943;SDS011;6031;50.220;10.122;2022-11-15T16:30:41;16.40;;;11.63;;
11943;SDS011;6031;50.220;10.122;2022-11-15T16:33:06;18.07;;;12.90;;
11943;SDS011;6031;50.220;10.122;2022-11-15T16:35:32;10.57;;;9.10;;
11943;SDS011;6031;50.220;10.122;2022-11-15T16:37:57;18.27;;;11.43;;
11943;SDS011;6031;50.220;10.122;2022-11-15T16:40:29;13.60;;;10.47;;
11943;SDS011;6031;50.220;10.122;2022-11-15T16:42:58;16.10;;;10.93;;
11943;SDS011;6031;50.220;10.122;2022-11-15T16:45:24;15.87;;;12.43;;
11943;SDS011;6031;50.220;10.122;2022-11-15T16:47:51;16.47;;;11.73;;
11943;SDS011;6031;50.220;10.122;2022-11-15T16:50:22;14.97;;;12.33;;
11943;SDS011;6031;50.220;10.122;2022-11-15T16:52:53;16.33;;;10.90;;